sensor_id;sensor_type;location;lat;lon;timestamp;P1;durP1;ratioP1;P2;durP2;ratioP2
17985;SDS011;9118;48.122;11.546;2023-05-07T00:01:39;10.90;;;9.20;;
17985;SDS011;9118;48.122;11.546;2023-05-07T00:04:06;12.33;;;9.63;;
17985;SDS011;9118;48.122;11.546;2023-05-07T00:06:33;10.80;;;9.70;;
17985;SDS011;9118;48.122;11.546;2023-05-07T00:09:00;12.43;;;10.43;;
17985;SDS011;9118;48.122;11.546;2023-05-07T00:11:29;11.30;;;9.50;;
17985;SDS011;9118;48.122;11.546;2023-05-07T00:13:57;11.13;;;9.90;;
17985;SDS011;9118;48.122;11.546;2023-05-07T00:16:24;11.53;;;9.70;;
17985;SDS011;9118;48.122;11.546;2023-05-07T00:18:51;11.17;;;9.70;;
17985;SDS011;9118;48.122;11.546;2023-05-07T00:21:19;26.03;;;19.33;;
17985;SDS011;9118;48.122;11.546;2023-05-07T00:23:46;13.37;;;10.83;;
17985;SDS011;9118;48.122;11.546;2023-05-07T00:26:13;14.30;;;10.83;;
17985;SDS011;9118;48.122;11.546;2023-05-07T00:28:42;12.13;;;9.97;;
17985;SDS011;9118;48.122;11.546;2023-05-07T00:31:09;14.07;;;10.37;;
17985;SDS011;9118;48.122;11.546;2023-05-07T00:33:37;13.73;;;9.93;;
17985;SDS011;9118;48.122;11.546;2023-05-07T00:36:04;14.87;;;10.50;;
17985;SDS011;9118;48.122;11.546;2023-05-07T00:38:32;12.33;;;9.93;;
17985;SDS011;9118;48.122;11.546;2023-05-07T00:40:59;12.80;;;10.40;;
17985;SDS011;9118;48.122;11.546;2023-05-07T00:43:27;11.50;;;9.63;;
17985;SDS011;9118;48.122;11.546;2023-05-07T00:45:56;14.80;;;10.23;;
17985;SDS011;9118;48.122;11.546;2023-05-07T00:48:23;12.17;;;10.57;;
17985;SDS011;9118;48.122;11.546;2023-05-07T00:50:52;15.00;;;11.00;;
17985;SDS011;9118;48.122;11.546;2023-05-07T00:53:20;15.67;;;11.00;;
17985;SDS011;9118;48.122;11.546;2023-05-07T00:55:47;11.17;;;9.73;;
17985;SDS011;9118;48.122;11.546;2023-05-07T00:58:15;13.23;;;10.70;;
17985;SDS011;9118;48.122;11.546;2023-05-07T01:00:42;11.77;;;9.90;;
17985;SDS011;9118;48.122;11.546;2023-05-07T01:03:11;11.10;;;8.80;;
17985;SDS011;9118;48.122;11.546;2023-05-07T01:05:38;10.73;;;9.23;;
17985;SDS011;9118;48.122;11.546;2023-05-07T01:08:06;11.47;;;9.33;;
17985;SDS011;9118;48.122;11.546;2023-05-07T01:10:33;11.00;;;9.00;;
17985;SDS011;9118;48.122;11.546;2023-05-07T01:13:00;11.00;;;9.27;;
17985;SDS011;9118;48.122;11.546;2023-05-07T01:15:28;12.93;;;9.43;;
17985;SDS011;9118;48.122;11.546;2023-05-07T01:17:55;10.40;;;9.40;;
17985;SDS011;9118;48.122;11.546;2023-05-07T01:20:24;12.73;;;9.60;;
17985;SDS011;9118;48.122;11.546;2023-05-07T01:22:52;10.70;;;9.60;;
17985;SDS011;9118;48.122;11.546;2023-05-07T01:25:20;11.70;;;9.70;;
17985;SDS011;9118;48.122;11.546;2023-05-07T01:27:47;10.97;;;9.67;;
17985;SDS011;9118;48.122;11.546;2023-05-07T01:30:15;10.77;;;9.50;;
17985;SDS011;9118;48.122;11.546;2023-05-07T01:32:45;11.97;;;9.57;;
17985;SDS011;9118;48.122;11.546;2023-05-07T01:35:19;11.73;;;9.23;;
17985;SDS011;9118;48.122;11.546;2023-05-07T01:37:48;10.87;;;9.23;;
17985;SDS011;9118;48.122;11.546;2023-05-07T01:40:17;11.10;;;9.40;;
17985;SDS011;9118;48.122;11.546;2023-05-07T01:42:45;10.50;;;8.73;;
17985;SDS011;9118;48.122;11.546;2023-05-07T01:45:13;10.90;;;9.03;;
17985;SDS011;9118;48.122;11.546;2023-05-07T01:47:40;10.37;;;9.17;;
17985;SDS011;9118;48.122;11.546;2023-05-07T01:50:08;11.60;;;8.60;;
17985;SDS011;9118;48.122;11.546;2023-05-07T01:52:36;13.67;;;9.17;;
17985;SDS011;9118;48.122;11.546;2023-05-07T01:55:04;11.50;;;9.43;;
17985;SDS011;9118;48.122;11.546;2023-05-07T01:57:34;9.57;;;8.63;;
17985;SDS011;9118;48.122;11.546;2023-05-07T02:00:02;11.20;;;8.93;;
17985;SDS011;9118;48.122;11.546;2023-05-07T02:02:30;9.40;;;8.50;;
17985;SDS011;9118;48.122;11.546;2023-05-07T02:04:58;9.50;;;8.37;;
17985;SDS011;9118;48.122;11.546;2023-05-07T02:07:25;10.27;;;8.83;;
17985;SDS011;9118;48.122;11.546;2023-05-07T02:09:52;9.77;;;8.77;;
17985;SDS011;9118;48.122;11.546;2023-05-07T02:12:20;9.20;;;8.13;;
17985;SDS011;9118;48.122;11.546;2023-05-07T02:14:49;11.40;;;8.07;;
17985;SDS011;9118;48.122;11.546;2023-05-07T02:17:16;9.20;;;8.30;;
17985;SDS011;9118;48.122;11.546;2023-05-07T02:19:43;9.30;;;8.17;;
17985;SDS011;9118;48.122;11.546;2023-05-07T02:22:10;9.07;;;8.27;;
17985;SDS011;9118;48.122;11.546;2023-05-07T02:24:37;8.73;;;7.83;;
17985;SDS011;9118;48.122;11.546;2023-05-07T02:27:04;10.90;;;8.30;;
17985;SDS011;9118;48.122;11.546;2023-05-07T02:29:31;11.90;;;9.13;;
17985;SDS011;9118;48.122;11.546;2023-05-07T02:32:00;8.97;;;8.03;;
17985;SDS011;9118;48.122;11.546;2023-05-07T02:34:27;9.07;;;8.17;;
17985;SDS011;9118;48.122;11.546;2023-05-07T02:36:54;10.83;;;8.17;;
17985;SDS011;9118;48.122;11.546;2023-05-07T02:39:21;10.40;;;7.80;;
17985;SDS011;9118;48.122;11.546;2023-05-07T02:41:48;8.67;;;7.77;;
17985;SDS011;9118;48.122;11.546;2023-05-07T02:44:18;9.00;;;8.07;;
17985;SDS011;9118;48.122;11.546;2023-05-07T02:46:45;12.43;;;8.30;;
17985;SDS011;9118;48.122;11.546;2023-05-07T02:49:13;9.23;;;7.97;;
17985;SDS011;9118;48.122;11.546;2023-05-07T02:51:41;11.53;;;7.83;;
17985;SDS011;9118;48.122;11.546;2023-05-07T02:54:08;9.17;;;8.17;;
17985;SDS011;9118;48.122;11.546;2023-05-07T02:56:35;9.13;;;7.40;;
17985;SDS011;9118;48.122;11.546;2023-05-07T02:59:04;9.27;;;7.70;;
17985;SDS011;9118;48.122;11.546;2023-05-07T03:01:31;9.63;;;8.27;;
17985;SDS011;9118;48.122;11.546;2023-05-07T03:03:58;9.13;;;8.03;;
17985;SDS011;9118;48.122;11.546;2023-05-07T03:06:27;8.53;;;7.73;;
17985;SDS011;9118;48.122;11.546;2023-05-07T03:08:54;8.00;;;7.30;;
17985;SDS011;9118;48.122;11.546;2023-05-07T03:11:21;8.77;;;7.87;;
17985;SDS011;9118;48.122;11.546;2023-05-07T03:13:48;8.67;;;7.87;;
17985;SDS011;9118;48.122;11.546;2023-05-07T03:16:15;8.30;;;7.50;;
17985;SDS011;9118;48.122;11.546;2023-05-07T03:18:42;9.57;;;7.37;;
17985;SDS011;9118;48.122;11.546;2023-05-07T03:21:09;8.83;;;7.93;;
17985;SDS011;9118;48.122;11.546;2023-05-07T03:23:39;9.13;;;7.57;;
17985;SDS011;9118;48.122;11.546;2023-05-07T03:26:06;9.73;;;7.87;;
17985;SDS011;9118;48.122;11.546;2023-05-07T03:28:33;8.60;;;7.80;;
17985;SDS011;9118;48.122;11.546;2023-05-07T03:31:00;8.30;;;7.50;;
17985;SDS011;9118;48.122;11.546;2023-05-07T03:33:27;8.20;;;7.37;;
17985;SDS011;9118;48.122;11.546;2023-05-07T03:35:54;11.70;;;7.10;;
17985;SDS011;9118;48.122;11.546;2023-05-07T03:38:21;8.77;;;7.47;;
17985;SDS011;9118;48.122;11.546;2023-05-07T03:40:50;8.00;;;7.20;;
17985;SDS011;9118;48.122;11.546;2023-05-07T03:43:17;7.63;;;6.97;;
17985;SDS011;9118;48.122;11.546;2023-05-07T03:45:44;8.03;;;7.23;;
17985;SDS011;9118;48.122;11.546;2023-05-07T03:48:11;10.90;;;7.50;;
17985;SDS011;9118;48.122;11.546;2023-05-07T03:50:38;7.53;;;6.80;;
17985;SDS011;9118;48.122;11.546;2023-05-07T03:53:05;8.83;;;7.30;;
17985;SDS011;9118;48.122;11.546;2023-05-07T03:55:32;8.57;;;6.87;;
17985;SDS011;9118;48.122;11.546;2023-05-07T03:58:01;7.77;;;6.97;;
17985;SDS011;9118;48.122;11.546;2023-05-07T04:00:28;7.77;;;6.70;;
17985;SDS011;9118;48.122;11.546;2023-05-07T04:02:58;8.33;;;7.53;;
17985;SDS011;9118;48.122;11.546;2023-05-07T04:05:25;7.07;;;6.47;;
17985;SDS011;9118;48.122;11.546;2023-05-07T04:07:53;7.63;;;6.83;;
17985;SDS011;9118;48.122;11.546;2023-05-07T04:10:20;7.10;;;6.40;;
17985;SDS011;9118;48.122;11.546;2023-05-07T04:12:47;7.13;;;6.53;;
17985;SDS011;9118;48.122;11.546;2023-05-07T04:15:16;7.73;;;6.73;;
17985;SDS011;9118;48.122;11.546;2023-05-07T04:17:43;7.67;;;7.07;;
17985;SDS011;9118;48.122;11.546;2023-05-07T04:20:14;7.87;;;7.07;;
17985;SDS011;9118;48.122;11.546;2023-05-07T04:22:44;7.60;;;6.90;;
17985;SDS011;9118;48.122;11.546;2023-05-07T04:25:12;7.90;;;7.10;;
17985;SDS011;9118;48.122;11.546;2023-05-07T04:27:39;7.50;;;6.70;;
17985;SDS011;9118;48.122;11.546;2023-05-07T04:30:06;7.47;;;6.77;;
17985;SDS011;9118;48.122;11.546;2023-05-07T04:32:35;7.90;;;7.10;;
17985;SDS011;9118;48.122;11.546;2023-05-07T04:35:03;7.53;;;6.83;;
17985;SDS011;9118;48.122;11.546;2023-05-07T04:37:31;7.40;;;6.63;;
17985;SDS011;9118;48.122;11.546;2023-05-07T04:39:58;8.57;;;7.30;;
17985;SDS011;9118;48.122;11.546;2023-05-07T04:42:26;7.27;;;6.57;;
17985;SDS011;9118;48.122;11.546;2023-05-07T04:44:53;9.53;;;6.77;;
17985;SDS011;9118;48.122;11.546;2023-05-07T04:47:21;7.43;;;6.73;;
17985;SDS011;9118;48.122;11.546;2023-05-07T04:49:49;9.57;;;7.13;;
17985;SDS011;9118;48.122;11.546;2023-05-07T04:52:16;7.50;;;6.80;;
17985;SDS011;9118;48.122;11.546;2023-05-07T04:54:43;7.97;;;6.87;;
17985;SDS011;9118;48.122;11.546;2023-05-07T04:57:11;9.17;;;7.33;;
17985;SDS011;9118;48.122;11.546;2023-05-07T04:59:38;9.40;;;7.33;;
17985;SDS011;9118;48.122;11.546;2023-05-07T05:02:05;7.30;;;6.60;;
17985;SDS011;9118;48.122;11.546;2023-05-07T05:04:33;8.40;;;7.03;;
17985;SDS011;9118;48.122;11.546;2023-05-07T05:07:01;8.93;;;6.50;;
17985;SDS011;9118;48.122;11.546;2023-05-07T05:09:29;8.00;;;7.20;;
17985;SDS011;9118;48.122;11.546;2023-05-07T05:11:58;10.13;;;7.03;;
17985;SDS011;9118;48.122;11.546;2023-05-07T05:14:25;8.10;;;6.73;;
17985;SDS011;9118;48.122;11.546;2023-05-07T05:16:53;7.53;;;6.83;;
17985;SDS011;9118;48.122;11.546;2023-05-07T05:19:20;7.63;;;6.80;;
17985;SDS011;9118;48.122;11.546;2023-05-07T05:21:47;7.77;;;6.77;;
17985;SDS011;9118;48.122;11.546;2023-05-07T05:24:16;6.83;;;6.23;;
17985;SDS011;9118;48.122;11.546;2023-05-07T05:26:45;7.10;;;6.30;;
17985;SDS011;9118;48.122;11.546;2023-05-07T05:29:12;7.80;;;6.77;;
17985;SDS011;9118;48.122;11.546;2023-05-07T05:31:39;6.73;;;6.07;;
17985;SDS011;9118;48.122;11.546;2023-05-07T05:34:07;8.07;;;6.97;;
17985;SDS011;9118;48.122;11.546;2023-05-07T05:36:35;8.70;;;7.10;;
17985;SDS011;9118;48.122;11.546;2023-05-07T05:39:04;7.67;;;6.20;;
17985;SDS011;9118;48.122;11.546;2023-05-07T05:41:35;7.17;;;6.47;;
17985;SDS011;9118;48.122;11.546;2023-05-07T05:44:02;7.80;;;6.83;;
17985;SDS011;9118;48.122;11.546;2023-05-07T05:46:29;9.57;;;6.90;;
17985;SDS011;9118;48.122;11.546;2023-05-07T05:48:57;7.57;;;6.67;;
17985;SDS011;9118;48.122;11.546;2023-05-07T05:51:24;7.90;;;6.50;;
17985;SDS011;9118;48.122;11.546;2023-05-07T05:53:52;7.87;;;6.30;;
17985;SDS011;9118;48.122;11.546;2023-05-07T05:56:19;9.17;;;6.50;;
17985;SDS011;9118;48.122;11.546;2023-05-07T05:58:48;8.67;;;6.27;;
17985;SDS011;9118;48.122;11.546;2023-05-07T06:01:15;8.90;;;6.53;;
17985;SDS011;9118;48.122;11.546;2023-05-07T06:03:47;9.67;;;6.57;;
17985;SDS011;9118;48.122;11.546;2023-05-07T06:06:14;9.13;;;6.20;;
17985;SDS011;9118;48.122;11.546;2023-05-07T06:08:42;7.27;;;6.17;;
17985;SDS011;9118;48.122;11.546;2023-05-07T06:11:09;12.83;;;7.23;;
17985;SDS011;9118;48.122;11.546;2023-05-07T06:13:36;11.33;;;7.37;;
17985;SDS011;9118;48.122;11.546;2023-05-07T06:16:06;8.53;;;7.40;;
17985;SDS011;9118;48.122;11.546;2023-05-07T06:18:34;7.43;;;6.70;;
17985;SDS011;9118;48.122;11.546;2023-05-07T06:21:02;7.70;;;6.90;;
17985;SDS011;9118;48.122;11.546;2023-05-07T06:23:29;11.13;;;6.93;;
17985;SDS011;9118;48.122;11.546;2023-05-07T06:25:56;8.53;;;6.80;;
17985;SDS011;9118;48.122;11.546;2023-05-07T06:28:23;8.73;;;6.80;;
17985;SDS011;9118;48.122;11.546;2023-05-07T06:30:50;7.23;;;6.10;;
17985;SDS011;9118;48.122;11.546;2023-05-07T06:33:19;8.67;;;6.87;;
17985;SDS011;9118;48.122;11.546;2023-05-07T06:35:46;6.53;;;5.87;;
17985;SDS011;9118;48.122;11.546;2023-05-07T06:38:13;8.57;;;6.60;;
17985;SDS011;9118;48.122;11.546;2023-05-07T06:40:40;6.80;;;5.97;;
17985;SDS011;9118;48.122;11.546;2023-05-07T06:43:07;7.17;;;5.80;;
17985;SDS011;9118;48.122;11.546;2023-05-07T06:45:36;6.17;;;5.57;;
17985;SDS011;9118;48.122;11.546;2023-05-07T06:48:03;6.27;;;5.23;;
17985;SDS011;9118;48.122;11.546;2023-05-07T06:50:32;6.73;;;5.07;;
17985;SDS011;9118;48.122;11.546;2023-05-07T06:52:59;6.27;;;5.20;;
17985;SDS011;9118;48.122;11.546;2023-05-07T06:55:26;9.17;;;5.57;;
17985;SDS011;9118;48.122;11.546;2023-05-07T06:57:53;9.03;;;5.40;;
17985;SDS011;9118;48.122;11.546;2023-05-07T07:00:20;5.70;;;5.20;;
17985;SDS011;9118;48.122;11.546;2023-05-07T07:02:48;5.83;;;5.23;;
17985;SDS011;9118;48.122;11.546;2023-05-07T07:05:15;9.37;;;5.93;;
17985;SDS011;9118;48.122;11.546;2023-05-07T07:07:44;6.00;;;5.40;;
17985;SDS011;9118;48.122;11.546;2023-05-07T07:10:17;6.37;;;5.77;;
17985;SDS011;9118;48.122;11.546;2023-05-07T07:12:44;6.33;;;5.40;;
17985;SDS011;9118;48.122;11.546;2023-05-07T07:15:12;5.43;;;4.93;;
17985;SDS011;9118;48.122;11.546;2023-05-07T07:17:39;7.07;;;5.53;;
17985;SDS011;9118;48.122;11.546;2023-05-07T07:20:07;6.67;;;5.73;;
17985;SDS011;9118;48.122;11.546;2023-05-07T07:22:34;5.77;;;5.37;;
17985;SDS011;9118;48.122;11.546;2023-05-07T07:25:03;6.80;;;5.30;;
17985;SDS011;9118;48.122;11.546;2023-05-07T07:27:31;6.17;;;5.60;;
17985;SDS011;9118;48.122;11.546;2023-05-07T07:29:58;9.33;;;6.77;;
17985;SDS011;9118;48.122;11.546;2023-05-07T07:32:25;9.07;;;8.13;;
17985;SDS011;9118;48.122;11.546;2023-05-07T07:34:52;6.20;;;5.60;;
17985;SDS011;9118;48.122;11.546;2023-05-07T07:37:19;10.10;;;6.20;;
17985;SDS011;9118;48.122;11.546;2023-05-07T07:39:47;6.50;;;5.87;;
17985;SDS011;9118;48.122;11.546;2023-05-07T07:42:16;7.43;;;5.37;;
17985;SDS011;9118;48.122;11.546;2023-05-07T07:44:43;6.50;;;5.90;;
17985;SDS011;9118;48.122;11.546;2023-05-07T07:47:11;7.07;;;5.77;;
17985;SDS011;9118;48.122;11.546;2023-05-07T07:49:38;6.47;;;5.80;;
17985;SDS011;9118;48.122;11.546;2023-05-07T07:52:06;5.57;;;5.07;;
17985;SDS011;9118;48.122;11.546;2023-05-07T07:54:33;7.13;;;6.43;;
17985;SDS011;9118;48.122;11.546;2023-05-07T07:57:00;14.23;;;9.77;;
17985;SDS011;9118;48.122;11.546;2023-05-07T07:59:30;5.83;;;4.53;;
17985;SDS011;9118;48.122;11.546;2023-05-07T08:01:57;5.17;;;4.67;;
17985;SDS011;9118;48.122;11.546;2023-05-07T08:04:24;5.33;;;4.70;;
17985;SDS011;9118;48.122;11.546;2023-05-07T08:06:52;6.87;;;5.90;;
17985;SDS011;9118;48.122;11.546;2023-05-07T08:09:22;5.57;;;5.00;;
17985;SDS011;9118;48.122;11.546;2023-05-07T08:11:49;5.23;;;4.73;;
17985;SDS011;9118;48.122;11.546;2023-05-07T08:14:17;5.73;;;5.10;;
17985;SDS011;9118;48.122;11.546;2023-05-07T08:16:46;7.33;;;4.37;;
17985;SDS011;9118;48.122;11.546;2023-05-07T08:19:13;6.03;;;5.53;;
17985;SDS011;9118;48.122;11.546;2023-05-07T08:21:41;6.20;;;5.10;;
17985;SDS011;9118;48.122;11.546;2023-05-07T08:24:08;8.37;;;5.03;;
17985;SDS011;9118;48.122;11.546;2023-05-07T08:26:36;8.90;;;7.90;;
17985;SDS011;9118;48.122;11.546;2023-05-07T08:29:04;7.63;;;5.57;;
17985;SDS011;9118;48.122;11.546;2023-05-07T08:31:31;8.43;;;5.30;;
17985;SDS011;9118;48.122;11.546;2023-05-07T08:34:00;5.70;;;5.20;;
17985;SDS011;9118;48.122;11.546;2023-05-07T08:36:27;7.80;;;6.77;;
17985;SDS011;9118;48.122;11.546;2023-05-07T08:38:54;6.83;;;6.03;;
17985;SDS011;9118;48.122;11.546;2023-05-07T08:41:22;6.13;;;5.03;;
17985;SDS011;9118;48.122;11.546;2023-05-07T08:43:50;7.73;;;4.60;;
17985;SDS011;9118;48.122;11.546;2023-05-07T08:46:19;6.47;;;4.37;;
17985;SDS011;9118;48.122;11.546;2023-05-07T08:48:49;4.63;;;4.30;;
17985;SDS011;9118;48.122;11.546;2023-05-07T08:51:19;4.60;;;4.17;;
17985;SDS011;9118;48.122;11.546;2023-05-07T08:53:48;4.57;;;4.17;;
17985;SDS011;9118;48.122;11.546;2023-05-07T08:56:16;5.10;;;4.53;;
17985;SDS011;9118;48.122;11.546;2023-05-07T08:58:45;4.90;;;4.40;;
17985;SDS011;9118;48.122;11.546;2023-05-07T09:01:13;4.63;;;4.23;;
17985;SDS011;9118;48.122;11.546;2023-05-07T09:03:43;4.67;;;4.23;;
17985;SDS011;9118;48.122;11.546;2023-05-07T09:06:11;5.27;;;4.80;;
17985;SDS011;9118;48.122;11.546;2023-05-07T09:08:40;4.60;;;4.20;;
17985;SDS011;9118;48.122;11.546;2023-05-07T09:11:07;5.20;;;4.27;;
17985;SDS011;9118;48.122;11.546;2023-05-07T09:13:35;5.17;;;4.03;;
17985;SDS011;9118;48.122;11.546;2023-05-07T09:16:10;5.00;;;4.60;;
17985;SDS011;9118;48.122;11.546;2023-05-07T09:18:40;4.60;;;4.10;;
17985;SDS011;9118;48.122;11.546;2023-05-07T09:21:10;4.50;;;3.90;;
17985;SDS011;9118;48.122;11.546;2023-05-07T09:23:37;5.07;;;4.57;;
17985;SDS011;9118;48.122;11.546;2023-05-07T09:26:06;4.70;;;4.30;;
17985;SDS011;9118;48.122;11.546;2023-05-07T09:28:38;5.00;;;3.90;;
17985;SDS011;9118;48.122;11.546;2023-05-07T09:31:06;3.93;;;3.60;;
17985;SDS011;9118;48.122;11.546;2023-05-07T09:33:35;4.93;;;4.45;;
17985;SDS011;9118;48.122;11.546;2023-05-07T09:36:03;6.47;;;3.87;;
17985;SDS011;9118;48.122;11.546;2023-05-07T09:38:30;4.85;;;4.30;;
17985;SDS011;9118;48.122;11.546;2023-05-07T09:41:02;3.90;;;3.30;;
17985;SDS011;9118;48.122;11.546;2023-05-07T09:43:34;5.65;;;3.83;;
17985;SDS011;9118;48.122;11.546;2023-05-07T09:46:03;3.57;;;3.27;;
17985;SDS011;9118;48.122;11.546;2023-05-07T09:48:35;3.80;;;3.50;;
17985;SDS011;9118;48.122;11.546;2023-05-07T09:51:06;5.33;;;3.53;;
17985;SDS011;9118;48.122;11.546;2023-05-07T09:53:41;4.80;;;3.13;;
17985;SDS011;9118;48.122;11.546;2023-05-07T09:56:12;3.97;;;3.58;;
17985;SDS011;9118;48.122;11.546;2023-05-07T09:58:41;6.60;;;4.57;;
17985;SDS011;9118;48.122;11.546;2023-05-07T10:01:10;7.40;;;4.90;;
17985;SDS011;9118;48.122;11.546;2023-05-07T10:03:39;4.13;;;3.72;;
17985;SDS011;9118;48.122;11.546;2023-05-07T10:06:08;4.13;;;3.38;;
17985;SDS011;9118;48.122;11.546;2023-05-07T10:08:38;5.87;;;3.87;;
17985;SDS011;9118;48.122;11.546;2023-05-07T10:11:08;3.83;;;3.43;;
17985;SDS011;9118;48.122;11.546;2023-05-07T10:13:37;4.78;;;4.05;;
17985;SDS011;9118;48.122;11.546;2023-05-07T10:16:05;3.85;;;3.38;;
17985;SDS011;9118;48.122;11.546;2023-05-07T10:18:32;4.37;;;3.97;;
17985;SDS011;9118;48.122;11.546;2023-05-07T10:21:02;4.88;;;4.40;;
17985;SDS011;9118;48.122;11.546;2023-05-07T10:23:31;4.53;;;4.13;;
17985;SDS011;9118;48.122;11.546;2023-05-07T10:25:59;4.23;;;3.83;;
17985;SDS011;9118;48.122;11.546;2023-05-07T10:28:30;4.80;;;4.07;;
17985;SDS011;9118;48.122;11.546;2023-05-07T10:31:27;3.90;;;3.60;;
17985;SDS011;9118;48.122;11.546;2023-05-07T10:34:15;6.15;;;3.78;;
17985;SDS011;9118;48.122;11.546;2023-05-07T10:36:47;4.40;;;4.00;;
17985;SDS011;9118;48.122;11.546;2023-05-07T10:39:15;4.40;;;4.05;;
17985;SDS011;9118;48.122;11.546;2023-05-07T10:41:42;6.07;;;4.20;;
17985;SDS011;9118;48.122;11.546;2023-05-07T10:44:09;4.10;;;3.78;;
17985;SDS011;9118;48.122;11.546;2023-05-07T10:46:38;4.60;;;3.72;;
17985;SDS011;9118;48.122;11.546;2023-05-07T10:49:09;3.67;;;3.27;;
17985;SDS011;9118;48.122;11.546;2023-05-07T10:51:37;4.05;;;3.25;;
17985;SDS011;9118;48.122;11.546;2023-05-07T10:56:50;4.15;;;3.70;;
17985;SDS011;9118;48.122;11.546;2023-05-07T10:59:30;6.07;;;5.47;;
17985;SDS011;9118;48.122;11.546;2023-05-07T11:02:08;4.67;;;3.80;;
17985;SDS011;9118;48.122;11.546;2023-05-07T11:04:39;5.10;;;3.92;;
17985;SDS011;9118;48.122;11.546;2023-05-07T11:07:24;3.90;;;3.60;;
17985;SDS011;9118;48.122;11.546;2023-05-07T11:09:56;3.67;;;3.38;;
17985;SDS011;9118;48.122;11.546;2023-05-07T11:15:39;4.30;;;4.00;;
17985;SDS011;9118;48.122;11.546;2023-05-07T11:18:12;6.50;;;5.03;;
17985;SDS011;9118;48.122;11.546;2023-05-07T11:20:44;5.40;;;4.72;;
17985;SDS011;9118;48.122;11.546;2023-05-07T11:26:24;4.30;;;3.30;;
17985;SDS011;9118;48.122;11.546;2023-05-07T11:28:51;4.13;;;3.72;;
17985;SDS011;9118;48.122;11.546;2023-05-07T11:31:26;7.20;;;4.07;;
17985;SDS011;9118;48.122;11.546;2023-05-07T11:33:56;5.67;;;5.17;;
17985;SDS011;9118;48.122;11.546;2023-05-07T11:36:24;7.20;;;4.30;;
17985;SDS011;9118;48.122;11.546;2023-05-07T11:38:52;4.80;;;4.30;;
17985;SDS011;9118;48.122;11.546;2023-05-07T11:41:19;9.65;;;7.07;;
17985;SDS011;9118;48.122;11.546;2023-05-07T11:43:57;4.88;;;4.47;;
17985;SDS011;9118;48.122;11.546;2023-05-07T11:46:25;6.87;;;4.93;;
17985;SDS011;9118;48.122;11.546;2023-05-07T11:48:53;5.37;;;4.37;;
17985;SDS011;9118;48.122;11.546;2023-05-07T11:51:22;4.40;;;4.00;;
17985;SDS011;9118;48.122;11.546;2023-05-07T11:53:51;5.68;;;4.57;;
17985;SDS011;9118;48.122;11.546;2023-05-07T11:56:19;6.67;;;6.07;;
17985;SDS011;9118;48.122;11.546;2023-05-07T11:58:46;4.63;;;4.22;;
17985;SDS011;9118;48.122;11.546;2023-05-07T12:01:16;6.38;;;5.10;;
17985;SDS011;9118;48.122;11.546;2023-05-07T12:03:44;4.90;;;4.50;;
17985;SDS011;9118;48.122;11.546;2023-05-07T12:06:13;5.88;;;4.80;;
17985;SDS011;9118;48.122;11.546;2023-05-07T12:08:43;5.83;;;5.23;;
17985;SDS011;9118;48.122;11.546;2023-05-07T12:11:13;4.80;;;4.40;;
17985;SDS011;9118;48.122;11.546;2023-05-07T12:13:42;7.93;;;6.05;;
17985;SDS011;9118;48.122;11.546;2023-05-07T12:16:09;11.93;;;9.00;;
17985;SDS011;9118;48.122;11.546;2023-05-07T12:18:37;6.00;;;5.40;;
17985;SDS011;9118;48.122;11.546;2023-05-07T12:21:05;6.15;;;5.55;;
17985;SDS011;9118;48.122;11.546;2023-05-07T12:23:33;5.53;;;4.40;;
17985;SDS011;9118;48.122;11.546;2023-05-07T12:26:03;6.03;;;5.23;;
17985;SDS011;9118;48.122;11.546;2023-05-07T12:28:31;4.80;;;4.38;;
17985;SDS011;9118;48.122;11.546;2023-05-07T12:31:03;4.60;;;4.03;;
17985;SDS011;9118;48.122;11.546;2023-05-07T12:33:31;5.63;;;4.70;;
17985;SDS011;9118;48.122;11.546;2023-05-07T12:35:58;4.90;;;4.40;;
17985;SDS011;9118;48.122;11.546;2023-05-07T12:38:33;5.88;;;5.30;;
17985;SDS011;9118;48.122;11.546;2023-05-07T12:41:03;5.32;;;4.72;;
17985;SDS011;9118;48.122;11.546;2023-05-07T12:43:32;4.70;;;4.18;;
17985;SDS011;9118;48.122;11.546;2023-05-07T12:45:59;4.38;;;3.97;;
17985;SDS011;9118;48.122;11.546;2023-05-07T12:48:27;5.43;;;3.22;;
17985;SDS011;9118;48.122;11.546;2023-05-07T12:50:55;4.53;;;4.10;;
17985;SDS011;9118;48.122;11.546;2023-05-07T12:53:24;4.72;;;4.32;;
17985;SDS011;9118;48.122;11.546;2023-05-07T12:55:52;4.85;;;4.32;;
17985;SDS011;9118;48.122;11.546;2023-05-07T12:58:24;5.93;;;4.45;;
17985;SDS011;9118;48.122;11.546;2023-05-07T13:00:52;6.65;;;3.83;;
17985;SDS011;9118;48.122;11.546;2023-05-07T13:03:25;4.30;;;4.00;;
17985;SDS011;9118;48.122;11.546;2023-05-07T13:05:54;5.65;;;4.30;;
17985;SDS011;9118;48.122;11.546;2023-05-07T13:08:29;4.03;;;3.65;;
17985;SDS011;9118;48.122;11.546;2023-05-07T13:10:58;5.38;;;4.88;;
17985;SDS011;9118;48.122;11.546;2023-05-07T13:13:30;4.50;;;4.10;;
17985;SDS011;9118;48.122;11.546;2023-05-07T13:15:57;4.10;;;3.75;;
17985;SDS011;9118;48.122;11.546;2023-05-07T13:18:24;4.22;;;3.80;;
17985;SDS011;9118;48.122;11.546;2023-05-07T13:20:52;4.78;;;3.70;;
17985;SDS011;9118;48.122;11.546;2023-05-07T13:23:19;4.45;;;3.10;;
17985;SDS011;9118;48.122;11.546;2023-05-07T13:25:47;5.00;;;4.07;;
17985;SDS011;9118;48.122;11.546;2023-05-07T13:28:14;6.65;;;4.03;;
17985;SDS011;9118;48.122;11.546;2023-05-07T13:30:43;4.15;;;3.28;;
17985;SDS011;9118;48.122;11.546;2023-05-07T13:33:10;5.47;;;2.97;;
17985;SDS011;9118;48.122;11.546;2023-05-07T13:35:37;3.70;;;3.38;;
17985;SDS011;9118;48.122;11.546;2023-05-07T13:38:04;3.15;;;2.90;;
17985;SDS011;9118;48.122;11.546;2023-05-07T13:40:31;8.15;;;6.63;;
17985;SDS011;9118;48.122;11.546;2023-05-07T13:42:59;4.00;;;3.60;;
17985;SDS011;9118;48.122;11.546;2023-05-07T13:45:27;3.60;;;3.30;;
17985;SDS011;9118;48.122;11.546;2023-05-07T13:47:56;2.72;;;2.50;;
17985;SDS011;9118;48.122;11.546;2023-05-07T13:50:23;2.58;;;2.40;;
17985;SDS011;9118;48.122;11.546;2023-05-07T13:52:54;2.80;;;2.60;;
17985;SDS011;9118;48.122;11.546;2023-05-07T13:55:24;3.35;;;3.05;;
17985;SDS011;9118;48.122;11.546;2023-05-07T13:57:55;4.35;;;3.78;;
17985;SDS011;9118;48.122;11.546;2023-05-07T14:00:23;5.20;;;4.70;;
17985;SDS011;9118;48.122;11.546;2023-05-07T14:02:51;3.95;;;3.55;;
17985;SDS011;9118;48.122;11.546;2023-05-07T14:05:19;3.20;;;2.90;;
17985;SDS011;9118;48.122;11.546;2023-05-07T14:07:49;3.17;;;2.72;;
17985;SDS011;9118;48.122;11.546;2023-05-07T14:10:23;3.90;;;2.67;;
17985;SDS011;9118;48.122;11.546;2023-05-07T14:12:50;3.45;;;3.15;;
17985;SDS011;9118;48.122;11.546;2023-05-07T14:15:19;2.97;;;2.78;;
17985;SDS011;9118;48.122;11.546;2023-05-07T14:17:46;3.00;;;2.80;;
17985;SDS011;9118;48.122;11.546;2023-05-07T14:20:15;3.17;;;2.88;;
17985;SDS011;9118;48.122;11.546;2023-05-07T14:22:44;2.92;;;2.72;;
17985;SDS011;9118;48.122;11.546;2023-05-07T14:25:11;3.70;;;3.40;;
17985;SDS011;9118;48.122;11.546;2023-05-07T14:27:38;6.50;;;3.55;;
17985;SDS011;9118;48.122;11.546;2023-05-07T14:30:20;4.88;;;3.30;;
17985;SDS011;9118;48.122;11.546;2023-05-07T14:33:03;3.88;;;3.20;;
17985;SDS011;9118;48.122;11.546;2023-05-07T14:35:46;3.35;;;3.05;;
17985;SDS011;9118;48.122;11.546;2023-05-07T14:41:39;4.90;;;3.30;;
17985;SDS011;9118;48.122;11.546;2023-05-07T14:44:17;3.60;;;3.30;;
17985;SDS011;9118;48.122;11.546;2023-05-07T14:46:44;5.07;;;3.65;;
17985;SDS011;9118;48.122;11.546;2023-05-07T14:49:23;4.55;;;3.65;;
17985;SDS011;9118;48.122;11.546;2023-05-07T14:51:51;3.28;;;3.08;;
17985;SDS011;9118;48.122;11.546;2023-05-07T14:54:47;6.32;;;3.88;;
17985;SDS011;9118;48.122;11.546;2023-05-07T15:00:24;9.65;;;8.57;;
17985;SDS011;9118;48.122;11.546;2023-05-07T15:06:11;4.40;;;4.10;;
17985;SDS011;9118;48.122;11.546;2023-05-07T15:08:42;4.63;;;3.88;;
17985;SDS011;9118;48.122;11.546;2023-05-07T15:11:23;5.22;;;4.45;;
17985;SDS011;9118;48.122;11.546;2023-05-07T15:14:09;4.57;;;4.18;;